createdAt,value
2019-01-28T00:01:59.544Z,97229.27
2019-01-28T00:04:27.613Z,97232.44
2019-01-28T00:06:55.325Z,97239.55
2019-01-28T00:09:42.224Z,97239.55
2019-01-28T00:12:31.253Z,97232.20
2019-01-28T00:14:59.217Z,97232.53
2019-01-28T00:17:26.872Z,97232.53
2019-01-28T00:19:54.570Z,97229.90
2019-01-28T00:22:22.317Z,97232.20
2019-01-28T00:25:08.758Z,97234.52
2019-01-28T00:27:36.590Z,97234.52
2019-01-28T00:30:23.095Z,97224.97
2019-01-28T00:32:50.955Z,97211.81
2019-01-28T00:35:37.478Z,97221.87
2019-01-28T00:38:05.732Z,97221.87
2019-01-28T00:40:33.446Z,97216.60
2019-01-28T00:43:19.952Z,97213.97
2019-01-28T00:46:06.472Z,97215.11
2019-01-28T00:48:53.326Z,97215.11
2019-01-28T00:54:13.706Z,97214.11
2019-01-28T00:56:41.353Z,97209.66
2019-01-28T01:02:01.139Z,97214.45
2019-01-28T01:04:47.682Z,97209.52
2019-01-28T01:07:17.915Z,97212.82
2019-01-28T01:09:45.738Z,97212.82
2019-01-28T01:12:32.228Z,97209.66
2019-01-28T01:15:18.968Z,97206.99
2019-01-28T01:18:07.333Z,97206.40
2019-01-28T01:20:35.089Z,97206.40
2019-01-28T01:23:21.599Z,97204.72
2019-01-28T01:26:08.088Z,97209.38
2019-01-28T01:28:57.825Z,97210.47
2019-01-28T01:31:44.341Z,97196.89
2019-01-28T01:34:31.042Z,97203.06
2019-01-28T01:37:17.580Z,97199.05
2019-01-28T01:39:45.270Z,97199.05
2019-01-28T01:42:31.773Z,97201.64
2019-01-28T01:44:59.485Z,97201.44
2019-01-28T01:47:46.275Z,97195.44
2019-01-28T01:50:32.797Z,97191.80
2019-01-28T01:53:00.417Z,97191.80
2019-01-28T01:55:46.923Z,97196.18
2019-01-28T01:58:33.410Z,97185.80
2019-01-28T02:01:01.273Z,97185.80
2019-01-28T02:03:47.760Z,97191.02
2019-01-28T02:06:34.290Z,97182.09
2019-01-28T02:09:01.985Z,97177.00
2019-01-28T02:11:48.416Z,97177.00
2019-01-28T02:14:16.567Z,97165.94
2019-01-28T02:16:44.215Z,97163.45
2019-01-28T02:19:31.111Z,97168.84
2019-01-28T02:21:58.687Z,97168.84
2019-01-28T02:24:45.447Z,97151.22
2019-01-28T02:27:13.134Z,97151.22
2019-01-28T02:29:41.400Z,97151.55
2019-01-28T02:32:28.168Z,97148.11
2019-01-28T02:35:14.668Z,97141.68
2019-01-28T02:38:01.469Z,97138.08
2019-01-28T02:40:29.196Z,97138.08
2019-01-28T02:42:58.487Z,97140.37
2019-01-28T02:45:45.019Z,97134.27
2019-01-28T02:48:31.515Z,97128.67
2019-01-28T02:50:59.294Z,97128.67
2019-01-28T02:53:45.727Z,97123.92
2019-01-28T02:56:13.455Z,97104.69
2019-01-28T02:58:41.187Z,97113.41
2019-01-28T03:01:09.823Z,97111.77
2019-01-28T03:03:37.636Z,97108.09
2019-01-28T03:06:05.268Z,97108.09
2019-01-28T03:08:52.036Z,97118.23
2019-01-28T03:11:38.416Z,97094.84
2019-01-28T03:14:25.223Z,97104.18
2019-01-28T03:16:53.211Z,97107.95
2019-01-28T03:19:39.929Z,97098.42
2019-01-28T03:22:26.907Z,97098.22
2019-01-28T03:24:54.555Z,97094.41
2019-01-28T03:27:41.080Z,97094.41
2019-01-28T03:30:08.745Z,97087.98
2019-01-28T03:32:36.416Z,97094.07
2019-01-28T03:35:22.927Z,97087.98
2019-01-28T03:37:50.588Z,97085.35
2019-01-28T03:40:18.358Z,97092.76
2019-01-28T03:43:04.728Z,97092.76
2019-01-28T03:45:32.593Z,97117.04
2019-01-28T03:48:00.702Z,97093.03
2019-01-28T03:50:28.663Z,97091.04
2019-01-28T03:52:56.506Z,97078.41
2019-01-28T03:55:24.372Z,97078.47
2019-01-28T03:58:11.139Z,97074.25
2019-01-28T04:00:38.945Z,97074.25
2019-01-28T04:03:06.720Z,97081.72
2019-01-28T04:05:34.342Z,97085.45
2019-01-28T04:08:21.131Z,97076.20
2019-01-28T04:10:48.980Z,97076.20
2019-01-28T04:13:16.709Z,97080.64
2019-01-28T04:15:44.570Z,97078.78
2019-01-28T04:18:31.052Z,97075.41
2019-01-28T04:20:58.733Z,97074.52
2019-01-28T04:23:28.071Z,97073.09
2019-01-28T04:25:55.737Z,97074.83
2019-01-28T04:28:42.238Z,97066.87
2019-01-28T04:31:28.630Z,97068.16
2019-01-28T04:33:56.318Z,97068.16
2019-01-28T04:36:42.840Z,97063.95
2019-01-28T04:39:29.287Z,97062.36
2019-01-28T04:41:56.958Z,97062.36
2019-01-28T04:44:43.365Z,97061.05
2019-01-28T04:47:11.137Z,97054.56
2019-01-28T04:49:39.171Z,97063.79
2019-01-28T04:52:25.891Z,97054.18
2019-01-28T04:54:53.574Z,97054.18
2019-01-28T04:57:21.191Z,97056.04
2019-01-28T04:59:48.976Z,97059.72
2019-01-28T05:02:16.900Z,97061.97
2019-01-28T05:05:03.416Z,97064.25
2019-01-28T05:07:31.134Z,97064.25
2019-01-28T05:10:17.662Z,97063.02
2019-01-28T05:12:45.294Z,97062.72
2019-01-28T05:15:12.962Z,97059.83
2019-01-28T05:17:59.754Z,97054.42
2019-01-28T05:20:27.528Z,97054.42
2019-01-28T05:22:55.088Z,97055.12
2019-01-28T05:25:22.647Z,97055.12
2019-01-28T05:28:09.103Z,97060.22
2019-01-28T05:30:36.785Z,97069.73
2019-01-28T05:33:23.255Z,97061.09
2019-01-28T05:35:50.938Z,97061.09
2019-01-28T05:41:10.799Z,97063.92
2019-01-28T05:43:57.281Z,97051.52
2019-01-28T05:46:43.791Z,97053.50
2019-01-28T05:49:11.443Z,97053.50
2019-01-28T05:51:39.787Z,97059.93
2019-01-28T05:54:07.633Z,97070.06
2019-01-28T05:56:38.074Z,97063.80
2019-01-28T05:59:05.656Z,97063.80
2019-01-28T06:01:33.508Z,97060.06
2019-01-28T06:04:04.198Z,97057.98
2019-01-28T06:06:31.747Z,97057.98
2019-01-28T06:08:59.719Z,97056.38
2019-01-28T06:11:27.416Z,97056.38
2019-01-28T06:14:08.620Z,97064.79
2019-01-28T06:16:36.593Z,97064.79
2019-01-28T06:19:06.885Z,97070.38
2019-01-28T06:21:34.575Z,97072.33
2019-01-28T06:24:06.975Z,97070.81
2019-01-28T06:26:34.175Z,97073.94
2019-01-28T06:29:04.955Z,97073.94
2019-01-28T06:31:32.838Z,97074.28
2019-01-28T06:34:00.537Z,97074.28
2019-01-28T06:36:28.111Z,97073.30
2019-01-28T06:38:56.201Z,97073.30
2019-01-28T06:41:26.843Z,97070.67
2019-01-28T06:43:54.432Z,97072.33
2019-01-28T06:46:22.382Z,97082.83
2019-01-28T06:48:49.932Z,97088.55
2019-01-28T06:51:17.549Z,97083.17
2019-01-28T06:53:45.438Z,97075.30
2019-01-28T06:56:13.177Z,97075.30
2019-01-28T06:58:40.789Z,97087.45
2019-01-28T07:01:08.738Z,97076.61
2019-01-28T07:03:36.435Z,97083.03
2019-01-28T07:06:04.090Z,97076.61
2019-01-28T07:08:32.229Z,97083.17
2019-01-28T07:10:59.812Z,97083.17
2019-01-28T07:13:27.515Z,97087.74
2019-01-28T07:16:00.225Z,97084.44
2019-01-28T07:18:27.932Z,97091.00
2019-01-28T07:20:55.587Z,97091.00
2019-01-28T07:23:23.574Z,97098.25
2019-01-28T07:25:51.228Z,97098.25
2019-01-28T07:28:21.925Z,97104.31
2019-01-28T07:30:49.938Z,97092.49
2019-01-28T07:33:19.030Z,97118.28
2019-01-28T07:35:46.705Z,97118.28
2019-01-28T07:38:14.612Z,97102.86
2019-01-28T07:40:42.157Z,97107.48
2019-01-28T07:43:09.880Z,97103.91
2019-01-28T07:45:44.846Z,97103.91
2019-01-28T07:48:12.046Z,97105.77
2019-01-28T07:50:39.772Z,97107.89
2019-01-28T07:53:07.740Z,97114.80
2019-01-28T07:55:35.299Z,97116.78
2019-01-28T07:58:02.856Z,97115.67
2019-01-28T08:00:30.821Z,97121.97
2019-01-28T08:03:01.967Z,97121.97
2019-01-28T08:05:29.730Z,97128.11
2019-01-28T08:07:57.606Z,97137.14
2019-01-28T08:10:25.298Z,97137.14
2019-01-28T08:12:53.023Z,97136.67
2019-01-28T08:15:20.925Z,97134.95
2019-01-28T08:17:51.478Z,97134.95
2019-01-28T08:20:19.141Z,97143.23
2019-01-28T08:22:47.112Z,97143.23
2019-01-28T08:25:14.693Z,97136.37
2019-01-28T08:27:42.340Z,97146.61
2019-01-28T08:30:10.289Z,97152.67
2019-01-28T08:32:39.708Z,97146.27
2019-01-28T08:35:07.244Z,97146.27
2019-01-28T08:37:35.158Z,97151.53
2019-01-28T08:40:02.713Z,97155.73
2019-01-28T08:42:30.384Z,97163.14
2019-01-28T08:44:59.912Z,97164.12
2019-01-28T08:47:27.601Z,97164.12
2019-01-28T08:49:57.296Z,97165.22
2019-01-28T08:52:25.251Z,97165.22
2019-01-28T08:55:01.154Z,97163.91
2019-01-28T08:57:31.458Z,97168.53
2019-01-28T08:59:59.382Z,97180.76
2019-01-28T09:02:27.400Z,97180.76
2019-01-28T09:04:56.604Z,97188.69
2019-01-28T09:07:24.547Z,97177.74
2019-01-28T09:09:52.213Z,97183.08
2019-01-28T09:12:19.806Z,97186.58
2019-01-28T09:14:47.724Z,97193.83
2019-01-28T09:17:15.313Z,97201.45
2019-01-28T09:19:42.969Z,97196.53
2019-01-28T09:22:13.647Z,97207.25
2019-01-28T09:24:41.328Z,97206.48
2019-01-28T09:27:16.145Z,97206.48
2019-01-28T09:29:44.478Z,97217.88
2019-01-28T09:32:14.051Z,97220.37
2019-01-28T09:34:44.071Z,97237.20
2019-01-28T09:37:11.998Z,97237.20
2019-01-28T09:39:43.452Z,97246.38
2019-01-28T09:42:11.118Z,97246.38
2019-01-28T09:44:42.097Z,97251.27
2019-01-28T09:47:09.798Z,97251.27
2019-01-28T09:49:37.454Z,97267.97
2019-01-28T09:52:05.381Z,97267.97
2019-01-28T09:54:43.639Z,97266.25
2019-01-28T09:57:12.593Z,97275.56
2019-01-28T09:59:40.535Z,97279.61
2019-01-28T10:02:13.467Z,97282.34
2019-01-28T10:04:41.437Z,97293.88
2019-01-28T10:07:09.373Z,97298.42
2019-01-28T10:09:37.266Z,97298.42
2019-01-28T10:12:06.892Z,97308.61
2019-01-28T10:14:34.828Z,97308.61
2019-01-28T10:17:03.072Z,97310.32
2019-01-28T10:19:31.195Z,97312.64
2019-01-28T10:22:00.204Z,97327.55
2019-01-28T10:24:30.556Z,97327.55
2019-01-28T10:27:01.192Z,97331.23
2019-01-28T10:29:29.156Z,97331.27
2019-01-28T10:31:56.757Z,97336.25
2019-01-28T10:34:24.464Z,97340.40
2019-01-28T10:36:52.419Z,97349.65
2019-01-28T10:39:20.056Z,97349.65
2019-01-28T10:41:47.659Z,97357.22
2019-01-28T10:44:15.599Z,97354.92
2019-01-28T10:46:43.240Z,97364.47
2019-01-28T10:49:13.198Z,97371.56
2019-01-28T10:51:42.993Z,97383.42
2019-01-28T10:54:10.618Z,97383.42
2019-01-28T10:56:41.286Z,97384.23
2019-01-28T10:59:09.244Z,97388.19
2019-01-28T11:01:36.977Z,97381.45
2019-01-28T11:04:04.751Z,97381.45
2019-01-28T11:06:32.795Z,97392.53
2019-01-28T11:09:00.518Z,97399.15
2019-01-28T11:11:28.320Z,97399.15
2019-01-28T11:13:56.265Z,97415.95
2019-01-28T11:16:24.077Z,97415.95
2019-01-28T11:18:57.576Z,97404.80
2019-01-28T11:21:21.441Z,97415.42
2019-01-28T11:23:52.078Z,97419.30
2019-01-28T11:26:19.823Z,97419.30
2019-01-28T11:28:47.718Z,97421.09
2019-01-28T11:31:18.779Z,97429.34
2019-01-28T11:33:48.410Z,97434.41
2019-01-28T11:36:16.436Z,97434.41
2019-01-28T11:38:44.785Z,97435.56
2019-01-28T11:41:12.390Z,97435.56
2019-01-28T11:43:41.473Z,97442.09
2019-01-28T11:46:09.148Z,97450.47
2019-01-28T11:48:37.658Z,97450.47
2019-01-28T11:51:05.698Z,97452.44
2019-01-28T11:53:33.347Z,97459.94
2019-01-28T11:56:01.337Z,97468.49
2019-01-28T11:58:31.209Z,97469.13
2019-01-28T12:01:03.549Z,97472.75
2019-01-28T12:03:34.274Z,97476.16
2019-01-28T12:06:01.964Z,97481.57
2019-01-28T12:08:29.593Z,97480.76
2019-01-28T12:10:57.511Z,97500.16
2019-01-28T12:13:25.098Z,97505.92
2019-01-28T12:15:52.792Z,97519.91
2019-01-28T12:18:20.699Z,97519.74
2019-01-28T12:20:53.513Z,97519.74
2019-01-28T12:23:17.704Z,97524.64
2019-01-28T12:25:48.484Z,97533.19
2019-01-28T12:28:15.919Z,97546.66
2019-01-28T12:30:43.520Z,97543.95
2019-01-28T12:33:11.479Z,97543.95
2019-01-28T12:35:39.088Z,97555.81
2019-01-28T12:38:06.772Z,97564.90
2019-01-28T12:40:34.646Z,97565.88
2019-01-28T12:43:02.348Z,97568.51
2019-01-28T12:45:29.937Z,97568.51
2019-01-28T12:47:58.960Z,97576.75
2019-01-28T12:50:26.581Z,97583.09
2019-01-28T12:52:54.280Z,97583.09
2019-01-28T12:55:22.219Z,97590.66
2019-01-28T12:57:49.979Z,97605.41
2019-01-28T13:00:17.650Z,97611.23
2019-01-28T13:02:45.578Z,97611.23
2019-01-28T13:05:16.204Z,97615.05
2019-01-28T13:07:48.176Z,97615.05
2019-01-28T13:10:16.628Z,97626.51
2019-01-28T13:12:44.306Z,97627.74
2019-01-28T13:15:11.944Z,97631.35
2019-01-28T13:17:39.841Z,97640.77
2019-01-28T13:20:08.843Z,97640.77
2019-01-28T13:22:44.545Z,97653.72
2019-01-28T13:25:06.002Z,97662.33
2019-01-28T13:27:35.898Z,97662.33
2019-01-28T13:30:03.592Z,97672.42
2019-01-28T13:32:32.397Z,97672.42
2019-01-28T13:35:10.574Z,97686.22
2019-01-28T13:37:38.480Z,97689.44
2019-01-28T13:40:06.128Z,97697.28
2019-01-28T13:42:33.822Z,97697.28
2019-01-28T13:45:04.180Z,97702.45
2019-01-28T13:47:33.718Z,97702.45
2019-01-28T13:50:05.334Z,97714.23
2019-01-28T13:52:36.001Z,97728.83
2019-01-28T13:55:03.629Z,97734.84
2019-01-28T13:57:33.464Z,97734.84
2019-01-28T14:00:07.851Z,97741.36
2019-01-28T14:02:36.619Z,97752.63
2019-01-28T14:05:13.947Z,97763.27
2019-01-28T14:07:38.845Z,97775.29
2019-01-28T14:10:06.204Z,97775.29
2019-01-28T14:12:34.872Z,97792.16
2019-01-28T14:15:04.808Z,97789.31
2019-01-28T14:17:32.173Z,97796.16
2019-01-28T14:20:00.178Z,97811.41
2019-01-28T14:22:27.800Z,97822.33
2019-01-28T14:24:55.474Z,97832.62
2019-01-28T14:27:26.177Z,97839.19
2019-01-28T14:29:53.834Z,97843.25
2019-01-28T14:32:21.524Z,97843.25
2019-01-28T14:34:53.916Z,97843.14
2019-01-28T14:37:21.953Z,97862.86
2019-01-28T14:39:51.843Z,97861.66
2019-01-28T14:42:22.474Z,97867.27
2019-01-28T14:44:50.084Z,97877.94
2019-01-28T14:47:17.789Z,97890.23
2019-01-28T14:49:54.428Z,97899.56
2019-01-28T14:52:29.141Z,97905.31
2019-01-28T14:57:32.141Z,97920.86
2019-01-28T14:59:59.828Z,97920.86
2019-01-28T15:02:30.749Z,97928.05
2019-01-28T15:04:58.437Z,97934.27
2019-01-28T15:07:26.051Z,97934.27
2019-01-28T15:09:56.882Z,97946.69
2019-01-28T15:12:24.510Z,97946.69
2019-01-28T15:14:52.210Z,97963.78
2019-01-28T15:17:20.078Z,97973.48
2019-01-28T15:19:50.986Z,97968.22
2019-01-28T15:22:39.449Z,97968.22
2019-01-28T15:25:07.625Z,97986.48
2019-01-28T15:27:35.297Z,97992.59
2019-01-28T15:30:03.248Z,97992.59
2019-01-28T15:32:33.241Z,98003.10
2019-01-28T15:38:07.670Z,98012.19
2019-01-28T15:43:26.179Z,98028.44
2019-01-28T15:45:53.820Z,98031.56
2019-01-28T15:48:40.242Z,98047.91
2019-01-28T15:51:07.833Z,98047.91
2019-01-28T15:53:35.566Z,98065.62
2019-01-28T15:56:22.984Z,98065.62
2019-01-28T15:58:50.739Z,98069.32
2019-01-28T16:01:18.389Z,98078.67
2019-01-28T16:04:04.903Z,98088.59
2019-01-28T16:06:32.591Z,98103.16
2019-01-28T16:09:00.579Z,98103.16
2019-01-28T16:11:28.255Z,98108.88
2019-01-28T16:14:07.780Z,98113.78
2019-01-28T16:16:56.739Z,98134.35
2019-01-28T16:19:32.178Z,98142.70
2019-01-28T16:22:18.620Z,98142.70
2019-01-28T16:24:46.296Z,98148.56
2019-01-28T16:27:32.722Z,98149.64
2019-01-28T16:30:00.437Z,98160.87
2019-01-28T16:33:01.069Z,98159.80
2019-01-28T16:35:47.560Z,98170.07
2019-01-28T16:38:04.530Z,98180.45
2019-01-28T16:41:21.347Z,98191.20
2019-01-28T16:43:40.101Z,98209.56
2019-01-28T16:46:09.542Z,98209.56
2019-01-28T16:52:01.175Z,98211.68
2019-01-28T16:54:47.634Z,98229.78
2019-01-28T16:57:15.352Z,98229.78
2019-01-28T16:59:42.955Z,98247.48
2019-01-28T17:02:29.437Z,98247.48
2019-01-28T17:10:36.344Z,98267.75
2019-01-28T17:13:27.227Z,98273.46
2019-01-28T17:15:54.770Z,98278.25
2019-01-28T17:18:41.198Z,98289.11
2019-01-28T17:21:09.360Z,98289.01
2019-01-28T17:23:57.472Z,98305.84
2019-01-28T17:26:43.826Z,98305.84
2019-01-28T17:29:30.275Z,98307.31
2019-01-28T17:31:58.014Z,98307.31
2019-01-28T17:34:27.928Z,98304.69
2019-01-28T17:37:14.439Z,98306.95
2019-01-28T17:42:47.204Z,98312.06
2019-01-28T17:45:17.197Z,98318.63
2019-01-28T17:48:03.704Z,98326.77
2019-01-28T17:50:31.413Z,98330.60
2019-01-28T17:53:17.854Z,98330.60
2019-01-28T17:55:45.468Z,98337.52
2019-01-28T17:58:15.192Z,98336.58
2019-01-28T18:01:01.714Z,98343.99
2019-01-28T18:03:29.700Z,98349.11
2019-01-28T18:06:18.684Z,98347.23
2019-01-28T18:09:05.147Z,98354.62
2019-01-28T18:11:53.988Z,98354.62
2019-01-28T18:14:24.147Z,98362.39
2019-01-28T18:17:10.550Z,98369.32
2019-01-28T18:20:01.849Z,98370.17
2019-01-28T18:22:48.294Z,98373.62
2019-01-28T18:25:30.311Z,98374.94
2019-01-28T18:28:04.196Z,98384.13
2019-01-28T18:30:50.679Z,98392.50
2019-01-28T18:33:37.125Z,98392.50
2019-01-28T18:36:08.792Z,98393.67
2019-01-28T18:42:00.402Z,98410.39
2019-01-28T18:47:33.154Z,98416.69
2019-01-28T18:50:19.659Z,98426.94
2019-01-28T18:53:06.144Z,98426.21
2019-01-28T18:55:55.743Z,98426.21
2019-01-28T18:58:42.922Z,98436.52
2019-01-28T19:01:29.338Z,98442.33
2019-01-28T19:06:50.205Z,98448.77
2019-01-28T19:09:36.669Z,98458.38
2019-01-28T19:12:23.697Z,98461.95
2019-01-28T19:15:22.627Z,98461.95
2019-01-28T19:17:58.269Z,98469.47
2019-01-28T19:20:47.538Z,98477.70
2019-01-28T19:23:15.540Z,98478.03
2019-01-28T19:26:02.036Z,98478.81
2019-01-28T19:28:50.174Z,98478.81
2019-01-28T19:31:17.815Z,98484.74
2019-01-28T19:33:51.111Z,98485.33
2019-01-28T19:36:37.580Z,98500.77
2019-01-28T19:39:07.274Z,98500.77
2019-01-28T19:41:35.936Z,98512.22
2019-01-28T19:44:22.382Z,98513.35
2019-01-28T19:47:29.947Z,98513.35
2019-01-28T19:50:06.253Z,98519.77
2019-01-28T19:52:33.762Z,98517.23
2019-01-28T19:55:02.027Z,98517.55
2019-01-28T20:00:21.479Z,98520.81
2019-01-28T20:02:51.780Z,98526.20
2019-01-28T20:05:19.335Z,98540.50
2019-01-28T20:08:05.781Z,98542.54
2019-01-28T20:10:37.796Z,98542.54
2019-01-28T20:15:59.542Z,98552.77
2019-01-28T20:18:27.492Z,98552.77
2019-01-28T20:21:00.109Z,98550.78
2019-01-28T20:23:27.843Z,98561.00
2019-01-28T20:25:55.815Z,98555.06
2019-01-28T20:28:23.800Z,98561.77
2019-01-28T20:31:10.279Z,98568.97
2019-01-28T20:33:57.727Z,98568.97
2019-01-28T20:36:26.457Z,98577.94
2019-01-28T20:39:15.334Z,98580.00
2019-01-28T20:41:58.745Z,98583.72
2019-01-28T20:47:25.948Z,98593.45
2019-01-28T20:56:04.335Z,98596.86
2019-01-28T20:58:31.990Z,98603.28
2019-01-28T21:03:39.550Z,98611.30
2019-01-28T21:09:26.950Z,98621.48
2019-01-28T21:11:44.573Z,98621.48
2019-01-28T21:14:31.840Z,98624.47
2019-01-28T21:17:24.797Z,98624.47
2019-01-28T21:19:50.219Z,98619.00
2019-01-28T21:22:17.858Z,98614.74
2019-01-28T21:24:46.072Z,98628.63
2019-01-28T21:27:13.752Z,98628.50
2019-01-28T21:30:00.300Z,98628.50
2019-01-28T21:32:46.696Z,98629.31
2019-01-28T21:35:33.242Z,98643.77
2019-01-28T21:38:19.781Z,98643.77
2019-01-28T21:43:40.574Z,98647.89
2019-01-28T21:46:10.214Z,98656.41
2019-01-28T21:48:59.175Z,98656.64
2019-01-28T21:51:38.606Z,98659.55
2019-01-28T21:53:56.790Z,98659.55
2019-01-28T21:59:17.816Z,98668.79
2019-01-28T22:04:52.143Z,98672.11
2019-01-28T22:07:20.152Z,98672.11
2019-01-28T22:09:50.974Z,98677.27
2019-01-28T22:17:47.439Z,98676.38
2019-01-28T22:20:33.967Z,98682.94
2019-01-28T22:23:03.857Z,98692.41
2019-01-28T22:25:50.358Z,98694.30
2019-01-28T22:28:36.787Z,98696.44
2019-01-28T22:31:23.208Z,98696.44
2019-01-28T22:33:57.192Z,98703.86
2019-01-28T22:36:24.882Z,98705.63
2019-01-28T22:39:11.444Z,98712.59
2019-01-28T22:41:41.001Z,98712.59
2019-01-28T22:44:20.067Z,98721.52
2019-01-28T22:49:35.439Z,98721.97
2019-01-28T22:52:21.922Z,98725.09
2019-01-28T22:54:49.540Z,98729.48
2019-01-28T22:57:19.085Z,98724.23
2019-01-28T23:00:12.971Z,98737.36
2019-01-28T23:02:59.415Z,98728.54
2019-01-28T23:08:51.026Z,98737.64
2019-01-28T23:11:37.454Z,98726.28
2019-01-28T23:17:29.381Z,98722.70
2019-01-28T23:19:57.319Z,98735.74
2019-01-28T23:22:28.388Z,98736.97
2019-01-28T23:24:56.087Z,98729.36
2019-01-28T23:27:23.976Z,98729.36
2019-01-28T23:30:10.440Z,98742.77
2019-01-28T23:32:47.425Z,98742.77
2019-01-28T23:35:35.435Z,98749.33
2019-01-28T23:38:07.558Z,98757.22
2019-01-28T23:46:15.523Z,98765.49
2019-01-28T23:49:14.883Z,98762.87
2019-01-28T23:54:37.573Z,98762.95
2019-01-28T23:57:24.349Z,98760.05
